Time;durP1;ratioP1;P1;durP2;ratioP2;P2;SDS_P1;SDS_P2;PMS_P1;PMS_P2;Temp;Humidity;BMP_temperature;BMP_pressure;BME280_temperature;BME280_humidity;BME280_pressure;Samples;Min_cycle;Max_cycle;Signal;HPM_P1;HPM_P2
2024/02/25 00:02:12;;;;;;;6.43;4.53;;;;;;;2.16;100.00;97215.56;5015235;28;20235;-81
2024/02/25 00:04:39;;;;;;;7.57;5.10;;;;;;;2.15;100.00;97221.66;5015224;28;20243;-80
2024/02/25 00:07:06;;;;;;;5.93;4.50;;;;;;;2.17;100.00;97227.66;5015419;28;20212;-80
2024/02/25 00:09:32;;;;;;;5.90;4.60;;;;;;;2.10;100.00;97228.91;5015154;28;20213;-81
2024/02/25 00:11:59;;;;;;;7.00;4.70;;;;;;;2.12;100.00;97220.97;5015202;28;20729;-80
2024/02/25 00:14:29;;;;;;;5.63;4.33;;;;;;;2.12;100.00;97223.59;5014881;28;20751;-79
2024/02/25 00:16:56;;;;;;;7.23;4.50;;;;;;;2.04;100.00;97237.03;5014485;28;20654;-78
2024/02/25 00:19:22;;;;;;;6.60;4.23;;;;;;;1.99;100.00;97244.22;5014570;28;20212;-79
2024/02/25 00:21:50;;;;;;;4.70;4.00;;;;;;;1.97;100.00;97248.63;5014880;28;20233;-78
2024/02/25 00:24:17;;;;;;;5.53;4.47;;;;;;;1.97;100.00;97246.03;5014651;28;20206;-80
2024/02/25 00:26:43;;;;;;;6.93;4.57;;;;;;;1.94;100.00;97246.19;5014728;28;20267;-80
2024/02/25 00:29:14;;;;;;;7.13;4.83;;;;;;;1.89;100.00;97242.97;5014417;28;20315;-78
2024/02/25 00:31:41;;;;;;;7.23;4.23;;;;;;;1.89;100.00;97249.97;5014398;28;20243;-79
2024/02/25 00:34:08;;;;;;;7.50;4.70;;;;;;;1.84;100.00;97244.13;5014979;28;20196;-79
2024/02/25 00:36:34;;;;;;;8.47;5.03;;;;;;;1.81;100.00;97245.13;5014748;28;20235;-79
2024/02/25 00:39:03;;;;;;;5.73;4.50;;;;;;;1.85;100.00;97240.59;5014480;28;20688;-80
2024/02/25 00:41:29;;;;;;;8.07;4.80;;;;;;;1.87;100.00;97238.75;5014455;28;20231;-79
2024/02/25 00:43:55;;;;;;;8.43;5.00;;;;;;;1.85;100.00;97243.19;5014739;28;20211;-80
2024/02/25 00:46:22;;;;;;;7.00;5.00;;;;;;;1.79;100.00;97248.72;5014498;28;20230;-80
2024/02/25 00:48:48;;;;;;;8.47;5.40;;;;;;;1.76;100.00;97246.22;5014141;28;20713;-79
2024/02/25 00:51:15;;;;;;;6.77;4.70;;;;;;;1.64;100.00;97242.47;5014520;28;20207;-80
2024/02/25 00:53:41;;;;;;;6.90;4.50;;;;;;;1.45;100.00;97241.66;5014257;28;20216;-80
2024/02/25 00:56:09;;;;;;;7.63;5.10;;;;;;;1.29;100.00;97242.47;5014250;28;20217;-79
2024/02/25 00:58:37;;;;;;;7.27;4.60;;;;;;;1.23;100.00;97246.19;5013838;28;20219;-80
2024/02/25 01:01:04;;;;;;;6.63;5.30;;;;;;;1.25;100.00;97238.31;5014299;28;20213;-78
2024/02/25 01:03:31;;;;;;;6.70;5.07;;;;;;;1.24;100.00;97242.66;5014339;28;20683;-78
2024/02/25 01:05:57;;;;;;;7.57;5.57;;;;;;;1.27;100.00;97242.53;5014158;28;20234;-79
2024/02/25 01:08:24;;;;;;;6.67;5.23;;;;;;;1.25;100.00;97233.97;5014410;28;20280;-79
2024/02/25 01:10:50;;;;;;;7.13;4.93;;;;;;;1.24;100.00;97237.47;5013082;28;20298;-77
2024/02/25 01:13:18;;;;;;;6.43;4.90;;;;;;;1.19;100.00;97234.25;5012711;28;20286;-77
2024/02/25 01:15:45;;;;;;;7.77;5.37;;;;;;;1.18;100.00;97232.53;5012433;28;20215;-77
2024/02/25 01:18:11;;;;;;;6.10;4.90;;;;;;;1.17;100.00;97230.84;5012575;28;20207;-77
2024/02/25 01:20:38;;;;;;;8.60;4.67;;;;;;;1.14;100.00;97219.75;5012796;28;20593;-77
2024/02/25 01:23:05;;;;;;;8.67;5.30;;;;;;;1.10;100.00;97219.06;5012524;28;20228;-77
2024/02/25 01:25:31;;;;;;;6.47;4.70;;;;;;;1.03;100.00;97228.06;5012325;28;20712;-77
2024/02/25 01:27:58;;;;;;;5.80;4.63;;;;;;;0.96;100.00;97226.66;5012257;28;20209;-77
2024/02/25 01:30:25;;;;;;;7.13;5.77;;;;;;;0.92;100.00;97227.69;5012330;28;20523;-77
2024/02/25 01:32:52;;;;;;;6.37;5.10;;;;;;;0.96;100.00;97231.84;5012222;28;20248;-77
2024/02/25 01:35:18;;;;;;;8.17;5.70;;;;;;;0.94;100.00;97223.28;5012750;28;20213;-77
2024/02/25 01:37:45;;;;;;;6.00;4.50;;;;;;;0.90;100.00;97223.47;5012198;28;20224;-77
2024/02/25 01:40:12;;;;;;;6.73;4.57;;;;;;;0.88;100.00;97220.97;5012316;28;20220;-77
2024/02/25 01:42:39;;;;;;;6.37;4.93;;;;;;;0.89;100.00;97214.84;5011674;28;20283;-77
2024/02/25 01:45:06;;;;;;;6.93;5.20;;;;;;;0.93;100.00;97220.75;5011913;28;20234;-77
2024/02/25 01:47:34;;;;;;;6.80;5.13;;;;;;;0.94;100.00;97212.88;5012258;28;20622;-77
2024/02/25 01:50:01;;;;;;;9.13;6.00;;;;;;;0.97;100.00;97207.53;5012456;28;20210;-77
2024/02/25 01:52:28;;;;;;;7.07;5.33;;;;;;;0.88;100.00;97202.75;5012148;28;20238;-77
2024/02/25 01:54:57;;;;;;;6.40;4.90;;;;;;;0.77;100.00;97205.00;5012227;28;20223;-77
2024/02/25 01:57:23;;;;;;;6.10;4.77;;;;;;;0.73;100.00;97200.00;5012157;28;20205;-77
2024/02/25 01:59:51;;;;;;;7.23;5.20;;;;;;;0.71;100.00;97204.41;5012119;28;20213;-78
2024/02/25 02:02:18;;;;;;;6.13;4.97;;;;;;;0.72;100.00;97201.75;5013630;28;20232;-78
2024/02/25 02:04:46;;;;;;;6.80;5.13;;;;;;;0.65;100.00;97202.97;5013545;28;20383;-78
2024/02/25 02:07:14;;;;;;;8.27;5.00;;;;;;;0.67;100.00;97201.13;5012639;28;20678;-78
2024/02/25 02:09:40;;;;;;;5.70;5.10;;;;;;;0.61;100.00;97193.59;5012215;28;20594;-78
2024/02/25 02:12:07;;;;;;;7.93;4.97;;;;;;;0.60;100.00;97196.25;5012006;28;20227;-78
2024/02/25 02:14:34;;;;;;;5.90;4.93;;;;;;;0.53;100.00;97190.50;5012509;28;20208;-78
2024/02/25 02:17:03;;;;;;;7.27;4.97;;;;;;;0.54;100.00;97187.00;5012068;28;20206;-77
2024/02/25 02:19:29;;;;;;;8.57;5.40;;;;;;;0.52;100.00;97188.81;5012028;28;20633;-78
2024/02/25 02:21:58;;;;;;;5.47;4.40;;;;;;;0.53;100.00;97197.44;5012139;28;20227;-77
2024/02/25 02:24:25;;;;;;;7.10;5.33;;;;;;;0.56;100.00;97187.75;5011931;28;20250;-78
2024/02/25 02:26:51;;;;;;;8.57;5.57;;;;;;;0.60;100.00;97186.72;5012178;28;20259;-78
2024/02/25 02:29:18;;;;;;;6.87;5.13;;;;;;;0.67;100.00;97182.91;5011929;28;20689;-78
2024/02/25 02:31:44;;;;;;;7.63;5.13;;;;;;;0.67;100.00;97171.66;5012957;28;20255;-78
2024/02/25 02:34:11;;;;;;;6.40;5.20;;;;;;;0.67;100.00;97176.88;5011820;28;20203;-77
2024/02/25 02:36:37;;;;;;;7.13;4.57;;;;;;;0.68;100.00;97179.41;5011322;28;20583;-78
2024/02/25 02:39:05;;;;;;;6.50;4.90;;;;;;;0.69;100.00;97170.69;5011134;28;20220;-77
2024/02/25 02:41:32;;;;;;;7.73;5.53;;;;;;;0.70;100.00;97171.53;5011293;28;20231;-77
2024/02/25 02:43:59;;;;;;;8.27;5.13;;;;;;;0.71;100.00;97168.88;5011462;28;20223;-77
2024/02/25 02:46:26;;;;;;;5.53;4.80;;;;;;;0.75;100.00;97170.41;5011380;28;20285;-77
2024/02/25 02:48:52;;;;;;;6.90;5.43;;;;;;;0.71;100.00;97163.69;5011154;28;20596;-77
2024/02/25 02:51:19;;;;;;;6.80;4.90;;;;;;;0.75;100.00;97165.19;5011187;28;20212;-77
2024/02/25 02:53:45;;;;;;;7.27;5.23;;;;;;;0.76;100.00;97166.06;5012514;28;20215;-77
2024/02/25 02:56:13;;;;;;;6.03;4.70;;;;;;;0.76;100.00;97166.06;5015701;28;20208;-79
2024/02/25 02:58:40;;;;;;;6.10;4.40;;;;;;;0.77;100.00;97157.34;5015509;28;20212;-78
2024/02/25 03:01:06;;;;;;;5.50;4.60;;;;;;;0.75;100.00;97157.41;5015149;28;20683;-77
2024/02/25 03:03:33;;;;;;;5.70;4.77;;;;;;;0.75;100.00;97154.81;5015401;28;20612;-77
2024/02/25 03:05:59;;;;;;;6.87;4.87;;;;;;;0.79;100.00;97158.09;5015241;28;20233;-76
2024/02/25 03:08:26;;;;;;;6.03;4.70;;;;;;;0.86;100.00;97149.13;5014928;28;20216;-79
2024/02/25 03:10:52;;;;;;;6.30;4.47;;;;;;;0.89;100.00;97152.44;5015048;28;20681;-77
2024/02/25 03:13:20;;;;;;;5.07;4.30;;;;;;;0.87;100.00;97141.22;5015172;28;20230;-79
2024/02/25 03:15:47;;;;;;;4.70;4.07;;;;;;;0.88;100.00;97145.53;5014869;28;20671;-77
2024/02/25 03:18:13;;;;;;;5.43;4.30;;;;;;;0.88;100.00;97145.53;5014819;28;20210;-78
2024/02/25 03:20:41;;;;;;;5.47;4.17;;;;;;;0.88;100.00;97145.53;5014819;28;20601;-76
2024/02/25 03:23:08;;;;;;;7.93;4.43;;;;;;;0.90;100.00;97138.50;5015144;28;20286;-78
2024/02/25 03:25:34;;;;;;;4.93;4.17;;;;;;;0.92;100.00;97141.03;5015008;28;20327;-79
2024/02/25 03:28:01;;;;;;;4.90;4.40;;;;;;;0.98;100.00;97135.56;5014748;28;20234;-79
2024/02/25 03:30:28;;;;;;;4.57;4.10;;;;;;;1.02;100.00;97134.47;5014834;28;20216;-79
2024/02/25 03:33:00;;;;;;;6.03;4.60;;;;;;;1.04;100.00;97133.47;5014519;28;20246;-76
2024/02/25 03:35:26;;;;;;;4.77;4.23;;;;;;;1.08;100.00;97132.44;5015381;28;20674;-78
2024/02/25 03:37:54;;;;;;;6.47;4.60;;;;;;;1.12;100.00;97128.75;5015006;28;20217;-79
2024/02/25 03:40:21;;;;;;;7.43;4.50;;;;;;;1.15;100.00;97136.41;5015378;28;20222;-79
2024/02/25 03:42:49;;;;;;;5.77;4.10;;;;;;;1.18;100.00;97132.84;5014786;28;20646;-76
2024/02/25 03:45:15;;;;;;;6.37;4.40;;;;;;;1.20;100.00;97137.03;5014406;28;20656;-77
2024/02/25 03:47:43;;;;;;;5.77;3.90;;;;;;;1.14;100.00;97133.88;5014268;28;20219;-76
2024/02/25 03:50:10;;;;;;;6.03;3.97;;;;;;;1.12;100.00;97141.75;5014691;28;20209;-77
2024/02/25 03:52:37;;;;;;;4.77;3.90;;;;;;;1.12;100.00;97139.16;5014328;28;20734;-77
2024/02/25 03:55:03;;;;;;;6.70;4.33;;;;;;;1.11;100.00;97132.28;5014583;28;20259;-78
2024/02/25 03:57:30;;;;;;;5.53;4.07;;;;;;;1.14;100.00;97141.69;5014224;28;20216;-78
2024/02/25 03:59:56;;;;;;;5.60;4.37;;;;;;;1.12;100.00;97133.94;5014103;28;20215;-77
2024/02/25 04:02:23;;;;;;;4.93;4.20;;;;;;;1.06;100.00;97131.63;5014115;28;20232;-77
2024/02/25 04:04:51;;;;;;;5.67;4.00;;;;;;;1.07;100.00;97122.94;5013872;28;20217;-77
2024/02/25 04:07:17;;;;;;;5.17;3.97;;;;;;;1.07;100.00;97130.75;5013907;28;20240;-77
2024/02/25 04:09:44;;;;;;;5.97;4.33;;;;;;;1.08;100.00;97116.81;5013960;28;20209;-77
2024/02/25 04:12:11;;;;;;;5.40;4.13;;;;;;;1.10;100.00;97114.16;5014071;28;20227;-78
2024/02/25 04:14:37;;;;;;;4.93;3.80;;;;;;;1.09;100.00;97118.50;5015107;28;20542;-78
2024/02/25 04:17:04;;;;;;;4.87;3.80;;;;;;;1.13;100.00;97109.66;5014561;28;20219;-78
2024/02/25 04:19:31;;;;;;;4.30;3.90;;;;;;;1.11;100.00;97116.66;5014967;28;20219;-77
2024/02/25 04:21:58;;;;;;;5.20;3.60;;;;;;;1.16;100.00;97112.09;5014865;28;20245;-77
2024/02/25 04:24:25;;;;;;;5.60;4.10;;;;;;;1.12;100.00;97113.13;5014752;28;20225;-78
2024/02/25 04:26:51;;;;;;;4.57;4.00;;;;;;;1.15;100.00;97117.34;5014683;28;20243;-78
2024/02/25 04:29:18;;;;;;;4.67;3.63;;;;;;;1.15;100.00;97112.16;5014172;28;20227;-78
2024/02/25 04:31:46;;;;;;;5.77;4.10;;;;;;;1.22;100.00;97121.38;5013947;28;20655;-77
2024/02/25 04:34:12;;;;;;;7.27;4.13;;;;;;;1.36;100.00;97118.94;5014541;28;20259;-78
2024/02/25 04:36:39;;;;;;;3.97;3.50;;;;;;;1.31;100.00;97124.38;5014242;28;20228;-78
2024/02/25 04:39:08;;;;;;;5.87;4.10;;;;;;;1.26;100.00;97126.34;5014067;28;20212;-77
2024/02/25 04:41:35;;;;;;;3.80;3.40;;;;;;;1.24;100.00;97120.34;5015802;28;20270;-78
2024/02/25 04:44:01;;;;;;;4.63;4.20;;;;;;;1.25;100.00;97119.47;5015154;28;20218;-78
2024/02/25 04:46:28;;;;;;;3.90;3.33;;;;;;;1.22;100.00;97118.78;5015584;28;20240;-78
2024/02/25 04:48:54;;;;;;;4.87;3.60;;;;;;;1.25;100.00;97124.66;5013780;28;20216;-78
2024/02/25 04:51:21;;;;;;;4.57;3.93;;;;;;;1.29;100.00;97115.78;5013714;28;20228;-77
2024/02/25 04:53:52;;;;;;;5.43;3.97;;;;;;;1.39;100.00;97124.81;5013592;28;20214;-77
2024/02/25 04:56:20;;;;;;;5.17;3.83;;;;;;;1.36;100.00;97127.56;5013815;28;20207;-78
2024/02/25 04:58:47;;;;;;;4.30;3.50;;;;;;;1.47;100.00;97122.69;5013679;28;20213;-78
2024/02/25 05:01:13;;;;;;;5.50;3.77;;;;;;;1.40;100.00;97121.31;5013449;28;20210;-78
2024/02/25 05:03:40;;;;;;;6.87;3.77;;;;;;;1.42;100.00;97121.22;5013581;28;20227;-78
2024/02/25 05:06:06;;;;;;;5.50;4.00;;;;;;;1.38;100.00;97115.34;5013759;28;20238;-77
2024/02/25 05:08:33;;;;;;;4.27;3.73;;;;;;;1.39;100.00;97113.56;5013838;28;20226;-78
2024/02/25 05:10:59;;;;;;;5.80;3.83;;;;;;;1.40;100.00;97107.44;5013845;28;20214;-78
2024/02/25 05:13:27;;;;;;;4.50;4.07;;;;;;;1.37;100.00;97111.06;5013636;28;20215;-78
2024/02/25 05:15:54;;;;;;;4.27;3.63;;;;;;;1.38;100.00;97120.53;5013658;28;20209;-77
2024/02/25 05:18:21;;;;;;;4.13;3.33;;;;;;;1.41;100.00;97124.75;5012476;28;20222;-77
2024/02/25 05:20:47;;;;;;;4.13;3.50;;;;;;;1.34;100.00;97126.81;5013555;28;20222;-77
2024/02/25 05:23:14;;;;;;;4.33;3.27;;;;;;;1.30;100.00;97133.06;5013688;28;20238;-78
2024/02/25 05:25:40;;;;;;;5.50;3.40;;;;;;;1.27;100.00;97122.81;5013293;28;20709;-78
2024/02/25 05:28:07;;;;;;;5.40;3.40;;;;;;;1.34;100.00;97119.00;5013370;28;20234;-77
2024/02/25 05:30:35;;;;;;;4.77;3.07;;;;;;;1.40;100.00;97129.09;5013560;28;20215;-77
2024/02/25 05:33:01;;;;;;;3.93;3.30;;;;;;;1.41;100.00;97122.97;5013284;28;20615;-78
2024/02/25 05:35:28;;;;;;;8.73;3.40;;;;;;;1.42;100.00;97119.44;5013664;28;20205;-78
2024/02/25 05:37:54;;;;;;;4.17;3.40;;;;;;;1.48;100.00;97121.75;5013184;28;20213;-78
2024/02/25 05:40:21;;;;;;;5.10;3.33;;;;;;;1.51;100.00;97121.63;5013676;28;20216;-78
2024/02/25 05:42:47;;;;;;;3.37;3.00;;;;;;;1.45;100.00;97121.91;5012993;28;20252;-78
2024/02/25 05:45:15;;;;;;;4.70;2.87;;;;;;;1.40;100.00;97131.72;5012923;28;20221;-78
2024/02/25 05:47:43;;;;;;;3.80;2.80;;;;;;;1.35;100.00;97128.47;5012850;28;20235;-78
2024/02/25 05:50:11;;;;;;;3.30;2.83;;;;;;;1.36;100.00;97127.56;5012848;28;20206;-78
2024/02/25 05:52:38;;;;;;;3.13;2.77;;;;;;;1.32;100.00;97130.41;5012773;28;20304;-78
2024/02/25 05:55:05;;;;;;;4.20;2.83;;;;;;;1.34;100.00;97134.63;5013065;28;20209;-78
2024/02/25 05:57:31;;;;;;;3.07;2.67;;;;;;;1.32;100.00;97131.25;5012937;28;20212;-77
2024/02/25 05:59:58;;;;;;;3.20;2.90;;;;;;;1.37;100.00;97131.88;5012718;28;20217;-77
2024/02/25 06:02:24;;;;;;;4.50;3.40;;;;;;;1.40;100.00;97139.53;5012737;28;20230;-78
2024/02/25 06:04:51;;;;;;;3.70;3.37;;;;;;;1.39;100.00;97136.97;5012987;28;20209;-77
2024/02/25 06:07:18;;;;;;;3.33;2.87;;;;;;;1.36;100.00;97134.53;5012421;28;20230;-78
2024/02/25 06:09:44;;;;;;;6.40;3.20;;;;;;;1.40;100.00;97136.91;5012690;28;20559;-78
2024/02/25 06:12:11;;;;;;;3.90;3.30;;;;;;;1.33;100.00;97132.94;5012873;28;20237;-78
2024/02/25 06:14:37;;;;;;;4.27;3.13;;;;;;;1.31;100.00;97133.91;5012619;28;20213;-77
2024/02/25 06:17:04;;;;;;;4.10;3.10;;;;;;;1.25;100.00;97132.47;5012633;28;20204;-78
2024/02/25 06:19:33;;;;;;;4.63;3.67;;;;;;;1.22;100.00;97134.38;5012255;28;20220;-78
2024/02/25 06:22:01;;;;;;;6.20;3.80;;;;;;;1.27;100.00;97138.44;5012209;28;20246;-77
2024/02/25 06:24:27;;;;;;;4.10;3.20;;;;;;;1.32;100.00;97128.66;5012668;28;20683;-78
2024/02/25 06:26:54;;;;;;;3.60;3.30;;;;;;;1.39;100.00;97132.63;5012210;28;20258;-78
2024/02/25 06:29:20;;;;;;;3.37;3.00;;;;;;;1.45;100.00;97132.34;5012713;28;20207;-77
2024/02/25 06:31:47;;;;;;;5.07;3.47;;;;;;;1.56;100.00;97135.25;5014164;28;20238;-77
2024/02/25 06:34:13;;;;;;;3.47;2.93;;;;;;;1.64;100.00;97138.31;5014387;28;20558;-78
2024/02/25 06:36:40;;;;;;;4.13;3.13;;;;;;;1.81;100.00;97140.91;5012380;28;20221;-77
2024/02/25 06:39:08;;;;;;;3.70;3.27;;;;;;;1.90;100.00;97139.63;5012556;28;20241;-78
2024/02/25 06:41:35;;;;;;;3.27;2.97;;;;;;;2.03;100.00;97148.50;5012141;28;20751;-77
2024/02/25 06:44:02;;;;;;;4.47;3.07;;;;;;;2.06;100.00;97151.78;5012088;28;20209;-77
2024/02/25 06:46:28;;;;;;;3.47;2.97;;;;;;;2.19;100.00;97155.44;5012222;28;20214;-77
2024/02/25 06:48:55;;;;;;;4.20;3.30;;;;;;;2.20;100.00;97149.28;5011891;28;20223;-77
2024/02/25 06:51:22;;;;;;;3.63;2.70;;;;;;;2.28;100.00;97148.91;5011977;28;20236;-77
2024/02/25 06:53:48;;;;;;;3.23;2.63;;;;;;;2.36;100.00;97150.19;5012571;28;20220;-78
2024/02/25 06:56:16;;;;;;;3.53;3.13;;;;;;;2.47;100.00;97160.91;5012294;28;20208;-78
2024/02/25 06:58:44;;;;;;;3.17;2.77;;;;;;;2.57;100.00;97163.88;5013009;28;20225;-78
2024/02/25 07:01:11;;;;;;;3.50;3.20;;;;;;;2.61;100.00;97163.63;5013147;28;20302;-78
2024/02/25 07:03:38;;;;;;;4.67;3.10;;;;;;;2.61;100.00;97165.38;5013388;28;20213;-78
2024/02/25 07:06:05;;;;;;;3.43;2.83;;;;;;;2.72;100.00;97174.34;5012542;28;20215;-77
2024/02/25 07:08:31;;;;;;;3.33;3.00;;;;;;;2.89;100.00;97171.63;5012455;28;20235;-78
2024/02/25 07:10:58;;;;;;;4.70;2.70;;;;;;;2.99;100.00;97175.44;5012490;28;20586;-78
2024/02/25 07:13:26;;;;;;;3.20;2.90;;;;;;;3.12;100.00;97171.22;5011707;28;20226;-78
2024/02/25 07:15:52;;;;;;;4.00;3.00;;;;;;;3.18;100.00;97173.50;5011427;28;20604;-77
2024/02/25 07:18:19;;;;;;;2.93;2.63;;;;;;;3.27;100.00;97173.00;5011038;28;20210;-76
2024/02/25 07:20:45;;;;;;;3.17;2.77;;;;;;;3.37;100.00;97166.31;5013044;28;20214;-78
2024/02/25 07:23:11;;;;;;;4.10;3.57;;;;;;;3.53;100.00;97175.00;5012914;28;20232;-77
2024/02/25 07:25:38;;;;;;;3.63;3.10;;;;;;;3.60;100.00;97181.53;5012424;28;20215;-78
2024/02/25 07:28:05;;;;;;;4.80;3.30;;;;;;;3.65;100.00;97176.91;5012010;28;20695;-78
2024/02/25 07:30:33;;;;;;;3.47;3.03;;;;;;;3.66;100.00;97181.19;5012317;28;20234;-78
2024/02/25 07:32:59;;;;;;;5.43;3.40;;;;;;;3.71;100.00;97187.00;5012393;28;20245;-78
2024/02/25 07:35:26;;;;;;;4.63;3.80;;;;;;;3.73;100.00;97185.16;5011347;28;20227;-77
2024/02/25 07:37:52;;;;;;;5.77;3.90;;;;;;;3.71;100.00;97179.19;5010820;28;20202;-77
2024/02/25 07:40:19;;;;;;;6.20;3.97;;;;;;;3.75;100.00;97180.69;5011538;28;20212;-77
2024/02/25 07:42:46;;;;;;;3.73;3.07;;;;;;;3.77;100.00;97178.81;5014808;28;20241;-77
2024/02/25 07:45:12;;;;;;;4.27;3.40;;;;;;;3.86;100.00;97178.28;4997478;28;20210;-79
2024/02/25 07:47:40;;;;;;;5.03;3.40;;;;;;;3.97;100.00;97182.91;5015275;28;20240;-77
2024/02/25 07:50:08;;;;;;;4.00;3.23;;;;;;;3.99;100.00;97168.81;5015454;28;20701;-76
2024/02/25 07:52:34;;;;;;;5.00;3.07;;;;;;;4.07;100.00;97176.19;4998153;28;20730;-79
2024/02/25 07:55:01;;;;;;;4.47;3.07;;;;;;;4.15;100.00;97179.22;5015877;28;20217;-78
2024/02/25 07:57:27;;;;;;;4.05;3.65;;;;;;;4.22;100.00;97170.06;5013017;28;20838;-79
2024/02/25 07:59:54;;;;;;;3.70;2.87;;;;;;;4.26;100.00;97171.56;5013508;28;20212;-79
2024/02/25 08:02:20;;;;;;;4.63;3.47;;;;;;;4.32;100.00;97171.19;5014732;28;20263;-77
2024/02/25 08:04:48;;;;;;;4.70;3.07;;;;;;;4.41;100.00;97166.25;5014122;28;20208;-78
2024/02/25 08:07:15;;;;;;;3.77;2.73;;;;;;;4.49;100.00;97161.41;5013919;28;20683;-78
2024/02/25 08:09:41;;;;;;;3.67;2.43;;;;;;;4.56;100.00;97159.25;5015041;28;20212;-77
2024/02/25 08:12:08;;;;;;;3.90;2.50;;;;;;;4.64;100.00;97157.03;5014279;28;20239;-77
2024/02/25 08:14:34;;;;;;;2.87;2.57;;;;;;;4.72;100.00;97150.41;5014495;28;20224;-77
2024/02/25 08:17:01;;;;;;;6.23;2.30;;;;;;;4.74;100.00;97147.66;5015201;28;20211;-79
2024/02/25 08:19:27;;;;;;;2.83;2.50;;;;;;;4.84;100.00;97144.38;5014029;28;20295;-77
2024/02/25 08:21:55;;;;;;;2.73;1.93;;;;;;;4.90;100.00;97144.00;5014836;28;20233;-79
2024/02/25 08:24:22;;;;;;;2.63;2.23;;;;;;;5.01;100.00;97141.56;5013890;28;20206;-79
2024/02/25 08:26:48;;;;;;;2.90;2.20;;;;;;;5.17;100.00;97131.81;5012037;28;20209;-78
2024/02/25 08:29:15;;;;;;;3.10;1.87;;;;;;;5.35;100.00;97132.41;5004374;28;20217;-79
2024/02/25 08:31:42;;;;;;;2.37;2.10;;;;;;;5.52;100.00;97126.91;5012060;28;20719;-78
2024/02/25 08:34:09;;;;;;;3.37;2.50;;;;;;;5.61;100.00;97115.84;5011703;28;20244;-79
2024/02/25 08:36:36;;;;;;;2.27;1.87;;;;;;;5.69;100.00;97114.38;4995315;28;20213;-79
2024/02/25 08:39:05;;;;;;;3.30;2.40;;;;;;;5.70;100.00;97112.59;5005492;28;20645;-78
2024/02/25 08:41:31;;;;;;;2.70;2.00;;;;;;;5.76;100.00;97110.44;5010974;28;20714;-77
2024/02/25 08:43:58;;;;;;;3.10;1.77;;;;;;;5.78;100.00;97116.41;5011376;28;20214;-78
2024/02/25 08:46:24;;;;;;;2.73;1.63;;;;;;;5.81;100.00;97108.34;5013215;28;20542;-78
2024/02/25 08:48:51;;;;;;;2.33;1.43;;;;;;;5.81;100.00;97105.72;5012535;28;20604;-78
2024/02/25 08:51:17;;;;;;;2.30;1.67;;;;;;;5.81;100.00;97108.34;5010159;28;20283;-78
2024/02/25 08:53:44;;;;;;;2.07;1.37;;;;;;;5.82;100.00;97110.06;4994898;28;20221;-77
2024/02/25 08:56:12;;;;;;;1.93;1.47;;;;;;;5.89;100.00;97105.22;5009880;28;20220;-78
2024/02/25 08:58:39;;;;;;;2.23;1.43;;;;;;;5.96;99.57;97109.97;5004344;28;20206;-79
2024/02/25 09:01:05;;;;;;;1.93;1.30;;;;;;;6.04;99.48;97101.59;5007380;28;20300;-79
2024/02/25 09:03:32;;;;;;;2.17;1.60;;;;;;;6.15;99.52;97094.66;5010895;28;20214;-78
2024/02/25 09:05:58;;;;;;;1.87;1.63;;;;;;;6.28;97.83;97092.06;5008023;28;20297;-79
2024/02/25 09:08:25;;;;;;;1.90;1.50;;;;;;;6.36;96.06;97080.06;5010215;28;20228;-78
2024/02/25 09:10:51;;;;;;;3.90;1.90;;;;;;;6.41;95.17;97079.78;5011825;28;20702;-78
2024/02/25 09:13:19;;;;;;;1.77;1.57;;;;;;;6.50;94.46;97072.09;5009167;28;20225;-78
2024/02/25 09:15:46;;;;;;;3.90;1.43;;;;;;;6.58;93.91;97067.13;5009758;28;20537;-80
2024/02/25 09:18:14;;;;;;;1.27;1.17;;;;;;;6.65;92.65;97071.00;5011313;28;20213;-80
2024/02/25 09:20:40;;;;;;;2.20;1.43;;;;;;;6.75;93.25;97069.41;5011399;28;20217;-79
2024/02/25 09:23:07;;;;;;;1.20;1.10;;;;;;;6.77;92.34;97069.31;5011092;28;20248;-78
2024/02/25 09:25:35;;;;;;;1.60;1.10;;;;;;;6.80;91.80;97054.19;5004509;28;20221;-78
2024/02/25 09:28:03;;;;;;;2.30;1.43;;;;;;;6.84;91.43;97066.13;5004642;28;20724;-79
2024/02/25 09:30:31;;;;;;;2.33;1.00;;;;;;;6.83;90.50;97053.94;5012929;28;20213;-79
2024/02/25 09:32:58;;;;;;;2.27;1.00;;;;;;;6.86;89.14;97048.50;5010802;28;20757;-79
2024/02/25 09:35:25;;;;;;;1.03;0.90;;;;;;;6.96;89.10;97054.75;5010276;28;20214;-79
2024/02/25 09:37:51;;;;;;;1.00;0.90;;;;;;;6.98;88.84;97042.38;5012480;28;20217;-79
2024/02/25 09:40:18;;;;;;;0.80;0.80;;;;;;;7.03;89.24;97050.72;5014018;28;20210;-79
2024/02/25 09:42:46;;;;;;;1.60;0.93;;;;;;;7.10;88.32;97040.63;5013790;28;20232;-78
2024/02/25 09:45:20;;;;;;;1.20;1.10;;;;;;;7.18;87.80;97039.94;5017921;28;20240;-78
2024/02/25 09:47:50;;;;;;;1.00;0.90;;;;;;;7.31;87.22;97037.28;5011965;28;20610;-78
2024/02/25 09:50:18;;;;;;;1.73;1.07;;;;;;;7.42;86.02;97021.56;5014185;28;20211;-78
2024/02/25 09:52:46;;;;;;;1.00;0.90;;;;;;;7.58;84.81;97015.03;5014585;28;20232;-78
2024/02/25 09:55:13;;;;;;;1.20;1.10;;;;;;;7.62;84.63;97015.63;5013578;28;20215;-79
2024/02/25 09:57:39;;;;;;;3.20;1.00;;;;;;;7.65;82.60;97003.09;5014927;28;20211;-78
2024/02/25 10:00:09;;;;;;;1.03;0.93;;;;;;;7.74;81.49;97002.41;5014607;28;20211;-78
2024/02/25 10:02:35;;;;;;;1.17;0.90;;;;;;;7.77;78.51;96996.09;5017581;28;20293;-80
2024/02/25 10:05:04;;;;;;;1.47;0.83;;;;;;;7.88;78.02;96993.47;5016198;28;20206;-77
2024/02/25 10:07:31;;;;;;;0.80;0.73;;;;;;;7.96;78.10;96991.09;5012499;28;20245;-78
2024/02/25 10:09:57;;;;;;;1.07;0.70;;;;;;;8.01;77.57;96987.16;5011955;28;20297;-78
2024/02/25 10:12:25;;;;;;;1.77;0.80;;;;;;;8.04;75.53;96972.91;5012784;28;20225;-79
2024/02/25 10:14:53;;;;;;;1.10;0.97;;;;;;;8.01;73.86;96957.34;5013469;28;20218;-78
2024/02/25 10:17:22;;;;;;;1.17;0.90;;;;;;;8.11;74.31;96968.84;5013014;28;20655;-78
2024/02/25 10:19:56;;;;;;;1.13;0.60;;;;;;;8.25;74.90;96971.28;5012979;28;20210;-78
2024/02/25 10:22:25;;;;;;;0.80;0.60;;;;;;;8.46;72.12;96948.53;5012373;28;20650;-78
2024/02/25 10:24:52;;;;;;;0.67;0.60;;;;;;;8.66;71.54;96939.88;5013206;28;20314;-79
2024/02/25 10:27:22;;;;;;;0.50;0.50;;;;;;;8.84;69.59;96938.41;5014062;28;20229;-79
2024/02/25 10:29:53;;;;;;;1.30;0.73;;;;;;;8.87;69.29;96930.25;5013475;28;20215;-79
2024/02/25 10:32:24;;;;;;;1.33;0.67;;;;;;;8.80;67.50;96916.72;5013237;28;20583;-78
2024/02/25 10:34:51;;;;;;;0.67;0.53;;;;;;;8.71;66.90;96906.09;5013930;28;20234;-79
2024/02/25 10:37:20;;;;;;;0.63;0.60;;;;;;;8.71;67.69;96919.28;5012483;28;20217;-78
2024/02/25 10:39:51;;;;;;;0.80;0.60;;;;;;;8.66;66.67;96900.38;5012499;28;20583;-79
2024/02/25 10:42:21;;;;;;;0.77;0.77;;;;;;;8.73;67.72;96917.34;5012186;28;20320;-78
2024/02/25 10:44:48;;;;;;;0.90;0.77;;;;;;;8.84;65.97;96885.69;5012019;28;20231;-78
2024/02/25 10:47:16;;;;;;;1.10;0.50;;;;;;;8.95;65.79;96888.31;5012220;28;20209;-78
2024/02/25 10:49:44;;;;;;;0.80;0.60;;;;;;;8.98;66.56;96890.66;5011424;28;20240;-78
2024/02/25 10:52:13;;;;;;;1.27;0.70;;;;;;;8.96;67.73;96905.78;5012187;28;20321;-78
2024/02/25 10:54:41;;;;;;;0.40;0.40;;;;;;;9.03;67.66;96899.03;5012161;28;20219;-78
2024/02/25 10:57:10;;;;;;;0.40;0.40;;;;;;;9.13;68.23;96895.50;5012510;28;20343;-78
2024/02/25 10:59:37;;;;;;;0.40;0.40;;;;;;;9.22;67.13;96886.00;5011931;28;20211;-78
2024/02/25 11:02:06;;;;;;;0.43;0.40;;;;;;;9.26;67.87;96888.28;5012306;28;20239;-79
2024/02/25 11:04:33;;;;;;;0.87;0.50;;;;;;;9.40;66.71;96879.19;5012115;28;20216;-78
2024/02/25 11:07:04;;;;;;;0.57;0.40;;;;;;;9.42;65.67;96864.09;5011474;28;20225;-78
2024/02/25 11:09:31;;;;;;;1.10;0.50;;;;;;;9.49;64.09;96846.78;5010838;28;20234;-79
2024/02/25 11:14:53;;;;;;;0.70;0.50;;;;;;;9.58;64.49;96860.03;5088095;28;20997;-77
2024/02/25 11:17:24;;;;;;;0.40;0.40;;;;;;;9.74;63.67;96833.97;5090979;28;20277;-78
2024/02/25 11:20:05;;;;;;;0.30;0.30;;;;;;;9.93;62.45;96828.81;5088894;28;20613;-77
2024/02/25 11:22:39;;;;;;;0.30;0.30;;;;;;;10.00;62.10;96816.75;5088577;28;20226;-77
2024/02/25 11:25:06;;;;;;;0.87;0.50;;;;;;;10.08;62.24;96824.00;5088974;28;20201;-77
2024/02/25 11:27:57;;;;;;;1.43;0.33;;;;;;;10.30;61.21;96808.78;5088100;28;20260;-76
2024/02/25 11:30:34;;;;;;;0.43;0.40;;;;;;;10.46;59.86;96793.22;5087880;28;20210;-77
2024/02/25 11:33:01;;;;;;;0.40;0.40;;;;;;;10.53;59.99;96793.53;5087561;28;20231;-77
2024/02/25 11:35:30;;;;;;;0.43;0.43;;;;;;;10.50;59.95;96788.50;5088047;28;20227;-77
2024/02/25 11:37:59;;;;;;;1.03;0.50;;;;;;;10.38;59.36;96774.59;5087693;28;20267;-76